sensor_id;sensor_type;location;lat;lon;timestamp;temperature;humidity
33645;DHT22;19986;48.190;16.366;2023-06-04T00:02:15;19.40;83.20
33645;DHT22;19986;48.190;16.366;2023-06-04T00:04:41;19.30;83.20
33645;DHT22;19986;48.190;16.366;2023-06-04T00:07:08;19.30;83.30
33645;DHT22;19986;48.190;16.366;2023-06-04T00:09:34;19.40;83.50
33645;DHT22;19986;48.190;16.366;2023-06-04T00:12:00;19.30;83.40
33645;DHT22;19986;48.190;16.366;2023-06-04T00:14:26;19.30;83.60
33645;DHT22;19986;48.190;16.366;2023-06-04T00:16:52;19.30;83.60
33645;DHT22;19986;48.190;16.366;2023-06-04T00:19:18;19.30;83.80
33645;DHT22;19986;48.190;16.366;2023-06-04T00:21:45;19.20;83.70
33645;DHT22;19986;48.190;16.366;2023-06-04T00:24:12;19.30;83.80
33645;DHT22;19986;48.190;16.366;2023-06-04T00:26:38;19.30;83.80
33645;DHT22;19986;48.190;16.366;2023-06-04T00:29:04;19.20;83.90
33645;DHT22;19986;48.190;16.366;2023-06-04T00:31:30;19.10;84.00
33645;DHT22;19986;48.190;16.366;2023-06-04T00:33:57;19.10;84.30
33645;DHT22;19986;48.190;16.366;2023-06-04T00:36:25;19.00;84.30
33645;DHT22;19986;48.190;16.366;2023-06-04T00:38:51;19.10;84.30
33645;DHT22;19986;48.190;16.366;2023-06-04T00:41:18;19.00;84.30
33645;DHT22;19986;48.190;16.366;2023-06-04T00:43:56;19.00;84.40
33645;DHT22;19986;48.190;16.366;2023-06-04T00:46:28;19.00;84.60
33645;DHT22;19986;48.190;16.366;2023-06-04T00:48:55;19.00;84.50
33645;DHT22;19986;48.190;16.366;2023-06-04T00:51:21;19.00;84.50
33645;DHT22;19986;48.190;16.366;2023-06-04T00:53:51;19.00;84.60
33645;DHT22;19986;48.190;16.366;2023-06-04T00:56:17;19.00;84.60
33645;DHT22;19986;48.190;16.366;2023-06-04T00:58:44;19.00;84.80
33645;DHT22;19986;48.190;16.366;2023-06-04T01:03:51;19.00;84.90
33645;DHT22;19986;48.190;16.366;2023-06-04T01:06:31;19.00;84.80
33645;DHT22;19986;48.190;16.366;2023-06-04T01:09:00;19.00;84.80
33645;DHT22;19986;48.190;16.366;2023-06-04T01:11:35;18.90;84.80
33645;DHT22;19986;48.190;16.366;2023-06-04T01:14:03;19.00;85.00
33645;DHT22;19986;48.190;16.366;2023-06-04T01:16:48;18.90;85.00
33645;DHT22;19986;48.190;16.366;2023-06-04T01:22:24;18.90;85.30
33645;DHT22;19986;48.190;16.366;2023-06-04T01:25:02;18.90;85.20
33645;DHT22;19986;48.190;16.366;2023-06-04T01:27:29;18.90;85.20
33645;DHT22;19986;48.190;16.366;2023-06-04T01:29:56;18.80;85.40
33645;DHT22;19986;48.190;16.366;2023-06-04T01:32:23;18.70;85.60
33645;DHT22;19986;48.190;16.366;2023-06-04T01:34:50;18.60;85.80
33645;DHT22;19986;48.190;16.366;2023-06-04T01:37:17;18.60;86.00
33645;DHT22;19986;48.190;16.366;2023-06-04T01:39:45;18.60;86.10
33645;DHT22;19986;48.190;16.366;2023-06-04T01:42:12;18.60;86.20
33645;DHT22;19986;48.190;16.366;2023-06-04T01:44:38;18.60;86.20
33645;DHT22;19986;48.190;16.366;2023-06-04T01:47:06;18.60;86.30
33645;DHT22;19986;48.190;16.366;2023-06-04T01:49:32;18.60;86.50
33645;DHT22;19986;48.190;16.366;2023-06-04T01:51:59;18.50;86.70
33645;DHT22;19986;48.190;16.366;2023-06-04T01:54:29;18.40;86.70
33645;DHT22;19986;48.190;16.366;2023-06-04T01:56:58;18.40;86.90
33645;DHT22;19986;48.190;16.366;2023-06-04T01:59:25;18.40;87.00
33645;DHT22;19986;48.190;16.366;2023-06-04T02:01:52;18.30;87.20
33645;DHT22;19986;48.190;16.366;2023-06-04T02:04:20;18.30;87.60
33645;DHT22;19986;48.190;16.366;2023-06-04T02:06:47;18.20;87.50
33645;DHT22;19986;48.190;16.366;2023-06-04T02:09:15;18.20;87.70
33645;DHT22;19986;48.190;16.366;2023-06-04T02:11:41;18.20;87.60
33645;DHT22;19986;48.190;16.366;2023-06-04T02:14:10;18.10;87.80
33645;DHT22;19986;48.190;16.366;2023-06-04T02:16:37;18.10;88.00
33645;DHT22;19986;48.190;16.366;2023-06-04T02:19:04;18.10;88.20
33645;DHT22;19986;48.190;16.366;2023-06-04T02:21:32;18.00;88.50
33645;DHT22;19986;48.190;16.366;2023-06-04T02:23:59;18.00;88.60
33645;DHT22;19986;48.190;16.366;2023-06-04T02:26:26;18.00;88.50
33645;DHT22;19986;48.190;16.366;2023-06-04T02:28:53;18.10;88.60
33645;DHT22;19986;48.190;16.366;2023-06-04T02:31:21;18.10;88.50
33645;DHT22;19986;48.190;16.366;2023-06-04T02:33:48;18.10;88.40
33645;DHT22;19986;48.190;16.366;2023-06-04T02:36:17;18.10;88.50
33645;DHT22;19986;48.190;16.366;2023-06-04T02:38:45;18.20;88.40
33645;DHT22;19986;48.190;16.366;2023-06-04T02:41:11;18.30;88.40
33645;DHT22;19986;48.190;16.366;2023-06-04T02:43:38;18.30;88.30
33645;DHT22;19986;48.190;16.366;2023-06-04T02:46:04;18.40;88.30
33645;DHT22;19986;48.190;16.366;2023-06-04T02:48:35;18.40;88.20
33645;DHT22;19986;48.190;16.366;2023-06-04T02:51:02;18.50;88.00
33645;DHT22;19986;48.190;16.366;2023-06-04T02:53:30;18.50;87.90
33645;DHT22;19986;48.190;16.366;2023-06-04T02:56:00;18.60;87.90
33645;DHT22;19986;48.190;16.366;2023-06-04T02:58:26;18.50;87.90
33645;DHT22;19986;48.190;16.366;2023-06-04T03:00:58;18.50;88.10
33645;DHT22;19986;48.190;16.366;2023-06-04T03:03:24;18.50;88.40
33645;DHT22;19986;48.190;16.366;2023-06-04T03:05:56;18.50;88.40
33645;DHT22;19986;48.190;16.366;2023-06-04T03:08:22;18.40;88.50
33645;DHT22;19986;48.190;16.366;2023-06-04T03:10:48;18.40;88.50
33645;DHT22;19986;48.190;16.366;2023-06-04T03:13:14;18.40;88.70
33645;DHT22;19986;48.190;16.366;2023-06-04T03:15:40;18.40;88.80
33645;DHT22;19986;48.190;16.366;2023-06-04T03:18:08;18.40;88.90
33645;DHT22;19986;48.190;16.366;2023-06-04T03:20:34;18.40;89.00
33645;DHT22;19986;48.190;16.366;2023-06-04T03:23:04;18.40;89.00
33645;DHT22;19986;48.190;16.366;2023-06-04T03:25:30;18.40;89.10
33645;DHT22;19986;48.190;16.366;2023-06-04T03:27:58;18.50;89.20
33645;DHT22;19986;48.190;16.366;2023-06-04T03:30:24;18.50;89.00
33645;DHT22;19986;48.190;16.366;2023-06-04T03:32:50;18.50;89.10
33645;DHT22;19986;48.190;16.366;2023-06-04T03:35:16;18.50;89.20
33645;DHT22;19986;48.190;16.366;2023-06-04T03:37:42;18.50;89.40
33645;DHT22;19986;48.190;16.366;2023-06-04T03:40:08;18.40;89.60
33645;DHT22;19986;48.190;16.366;2023-06-04T03:42:34;18.40;89.90
33645;DHT22;19986;48.190;16.366;2023-06-04T03:45:01;18.40;90.00
33645;DHT22;19986;48.190;16.366;2023-06-04T03:47:28;18.40;90.10
33645;DHT22;19986;48.190;16.366;2023-06-04T03:49:54;18.40;90.10
33645;DHT22;19986;48.190;16.366;2023-06-04T03:52:20;18.40;90.00
33645;DHT22;19986;48.190;16.366;2023-06-04T03:54:46;18.40;90.00
33645;DHT22;19986;48.190;16.366;2023-06-04T03:57:13;18.40;90.10
33645;DHT22;19986;48.190;16.366;2023-06-04T03:59:39;18.40;90.10
33645;DHT22;19986;48.190;16.366;2023-06-04T04:02:05;18.60;90.10
33645;DHT22;19986;48.190;16.366;2023-06-04T04:04:32;18.60;90.00
33645;DHT22;19986;48.190;16.366;2023-06-04T04:06:59;18.60;89.90
33645;DHT22;19986;48.190;16.366;2023-06-04T04:09:26;18.70;90.00
33645;DHT22;19986;48.190;16.366;2023-06-04T04:11:52;18.70;90.00
33645;DHT22;19986;48.190;16.366;2023-06-04T04:14:18;18.70;89.90
33645;DHT22;19986;48.190;16.366;2023-06-04T04:16:46;18.70;89.90
33645;DHT22;19986;48.190;16.366;2023-06-04T04:19:12;18.70;89.90
33645;DHT22;19986;48.190;16.366;2023-06-04T04:21:38;18.80;89.90
33645;DHT22;19986;48.190;16.366;2023-06-04T04:24:04;18.80;89.90
33645;DHT22;19986;48.190;16.366;2023-06-04T04:26:32;18.80;90.00
33645;DHT22;19986;48.190;16.366;2023-06-04T04:28:58;18.80;90.00
33645;DHT22;19986;48.190;16.366;2023-06-04T04:31:28;18.80;90.10
33645;DHT22;19986;48.190;16.366;2023-06-04T04:33:57;18.80;90.00
33645;DHT22;19986;48.190;16.366;2023-06-04T04:36:23;18.90;90.00
33645;DHT22;19986;48.190;16.366;2023-06-04T04:38:49;18.80;90.10
33645;DHT22;19986;48.190;16.366;2023-06-04T04:41:21;18.90;90.10
33645;DHT22;19986;48.190;16.366;2023-06-04T04:43:52;18.90;90.10
33645;DHT22;19986;48.190;16.366;2023-06-04T04:46:18;19.00;90.10
33645;DHT22;19986;48.190;16.366;2023-06-04T04:48:44;19.00;90.00
33645;DHT22;19986;48.190;16.366;2023-06-04T04:51:10;19.10;90.00
33645;DHT22;19986;48.190;16.366;2023-06-04T04:53:37;19.10;90.10
33645;DHT22;19986;48.190;16.366;2023-06-04T04:56:05;19.10;90.10
33645;DHT22;19986;48.190;16.366;2023-06-04T04:58:31;19.00;90.20
33645;DHT22;19986;48.190;16.366;2023-06-04T05:00:57;18.90;90.40
33645;DHT22;19986;48.190;16.366;2023-06-04T05:03:24;18.80;90.50
33645;DHT22;19986;48.190;16.366;2023-06-04T05:05:50;18.80;90.60
33645;DHT22;19986;48.190;16.366;2023-06-04T05:08:16;18.90;90.60
33645;DHT22;19986;48.190;16.366;2023-06-04T05:10:42;19.00;90.60
33645;DHT22;19986;48.190;16.366;2023-06-04T05:13:10;19.00;90.60
33645;DHT22;19986;48.190;16.366;2023-06-04T05:15:38;19.00;90.60
33645;DHT22;19986;48.190;16.366;2023-06-04T05:18:06;19.10;90.60
33645;DHT22;19986;48.190;16.366;2023-06-04T05:20:33;19.20;90.60
33645;DHT22;19986;48.190;16.366;2023-06-04T05:23:01;19.20;90.50
33645;DHT22;19986;48.190;16.366;2023-06-04T05:25:29;19.30;90.50
33645;DHT22;19986;48.190;16.366;2023-06-04T05:27:57;19.30;90.50
33645;DHT22;19986;48.190;16.366;2023-06-04T05:30:23;19.40;90.40
33645;DHT22;19986;48.190;16.366;2023-06-04T05:32:49;19.50;90.30
33645;DHT22;19986;48.190;16.366;2023-06-04T05:35:16;19.50;90.30
33645;DHT22;19986;48.190;16.366;2023-06-04T05:37:42;19.50;90.20
33645;DHT22;19986;48.190;16.366;2023-06-04T05:40:11;19.60;90.20
33645;DHT22;19986;48.190;16.366;2023-06-04T05:42:45;19.60;90.20
33645;DHT22;19986;48.190;16.366;2023-06-04T05:45:12;19.70;90.10
33645;DHT22;19986;48.190;16.366;2023-06-04T05:47:39;19.80;89.80
33645;DHT22;19986;48.190;16.366;2023-06-04T05:50:06;19.90;89.90
33645;DHT22;19986;48.190;16.366;2023-06-04T05:52:33;19.80;89.80
33645;DHT22;19986;48.190;16.366;2023-06-04T05:55:00;19.80;89.80
33645;DHT22;19986;48.190;16.366;2023-06-04T05:57:26;19.80;89.80
33645;DHT22;19986;48.190;16.366;2023-06-04T05:59:52;20.00;89.70
33645;DHT22;19986;48.190;16.366;2023-06-04T06:02:18;20.10;89.40
33645;DHT22;19986;48.190;16.366;2023-06-04T06:04:44;20.20;89.20
33645;DHT22;19986;48.190;16.366;2023-06-04T06:07:10;20.30;88.90
33645;DHT22;19986;48.190;16.366;2023-06-04T06:09:37;20.40;88.50
33645;DHT22;19986;48.190;16.366;2023-06-04T06:12:05;20.40;88.40
33645;DHT22;19986;48.190;16.366;2023-06-04T06:14:31;20.40;88.70
33645;DHT22;19986;48.190;16.366;2023-06-04T06:16:57;20.40;88.20
33645;DHT22;19986;48.190;16.366;2023-06-04T06:19:23;20.20;88.20
33645;DHT22;19986;48.190;16.366;2023-06-04T06:21:49;20.30;88.40
33645;DHT22;19986;48.190;16.366;2023-06-04T06:24:15;20.40;88.20
33645;DHT22;19986;48.190;16.366;2023-06-04T06:26:42;20.40;88.20
33645;DHT22;19986;48.190;16.366;2023-06-04T06:29:08;20.40;88.40
33645;DHT22;19986;48.190;16.366;2023-06-04T06:31:34;20.50;88.50
33645;DHT22;19986;48.190;16.366;2023-06-04T06:34:00;20.50;88.00
33645;DHT22;19986;48.190;16.366;2023-06-04T06:36:26;20.50;87.90
33645;DHT22;19986;48.190;16.366;2023-06-04T06:38:52;20.50;87.90
33645;DHT22;19986;48.190;16.366;2023-06-04T06:41:20;20.50;88.00
33645;DHT22;19986;48.190;16.366;2023-06-04T06:43:47;20.50;88.00
33645;DHT22;19986;48.190;16.366;2023-06-04T06:46:14;20.40;88.10
33645;DHT22;19986;48.190;16.366;2023-06-04T06:48:40;20.40;88.30
33645;DHT22;19986;48.190;16.366;2023-06-04T06:51:11;20.30;88.50
33645;DHT22;19986;48.190;16.366;2023-06-04T06:53:39;20.20;88.70
33645;DHT22;19986;48.190;16.366;2023-06-04T06:56:08;20.30;88.90
33645;DHT22;19986;48.190;16.366;2023-06-04T06:58:34;20.40;88.90
33645;DHT22;19986;48.190;16.366;2023-06-04T07:01:01;20.30;88.70
33645;DHT22;19986;48.190;16.366;2023-06-04T07:03:28;20.30;88.90
33645;DHT22;19986;48.190;16.366;2023-06-04T07:05:54;20.40;89.20
33645;DHT22;19986;48.190;16.366;2023-06-04T07:08:20;20.30;89.40
33645;DHT22;19986;48.190;16.366;2023-06-04T07:10:47;20.30;89.60
33645;DHT22;19986;48.190;16.366;2023-06-04T07:13:12;20.50;89.40
33645;DHT22;19986;48.190;16.366;2023-06-04T07:15:38;20.60;89.20
33645;DHT22;19986;48.190;16.366;2023-06-04T07:18:04;20.70;88.70
33645;DHT22;19986;48.190;16.366;2023-06-04T07:20:31;20.80;88.70
33645;DHT22;19986;48.190;16.366;2023-06-04T07:22:58;20.90;88.40
33645;DHT22;19986;48.190;16.366;2023-06-04T07:25:26;21.00;88.50
33645;DHT22;19986;48.190;16.366;2023-06-04T07:27:52;21.20;88.00
33645;DHT22;19986;48.190;16.366;2023-06-04T07:30:18;21.50;87.80
33645;DHT22;19986;48.190;16.366;2023-06-04T07:32:48;21.70;86.90
33645;DHT22;19986;48.190;16.366;2023-06-04T07:35:13;21.90;86.20
33645;DHT22;19986;48.190;16.366;2023-06-04T07:37:40;22.00;86.00
33645;DHT22;19986;48.190;16.366;2023-06-04T07:40:17;22.00;85.80
33645;DHT22;19986;48.190;16.366;2023-06-04T07:42:49;22.10;86.10
33645;DHT22;19986;48.190;16.366;2023-06-04T07:45:21;22.40;85.60
33645;DHT22;19986;48.190;16.366;2023-06-04T07:47:47;22.60;85.10
33645;DHT22;19986;48.190;16.366;2023-06-04T07:50:14;22.80;84.60
33645;DHT22;19986;48.190;16.366;2023-06-04T07:52:42;23.00;84.20
33645;DHT22;19986;48.190;16.366;2023-06-04T07:55:08;23.40;84.00
33645;DHT22;19986;48.190;16.366;2023-06-04T07:57:35;23.70;82.70
33645;DHT22;19986;48.190;16.366;2023-06-04T08:00:01;23.90;82.40
33645;DHT22;19986;48.190;16.366;2023-06-04T08:02:31;24.20;81.90
33645;DHT22;19986;48.190;16.366;2023-06-04T08:04:56;24.40;81.50
33645;DHT22;19986;48.190;16.366;2023-06-04T08:07:23;24.50;81.00
33645;DHT22;19986;48.190;16.366;2023-06-04T08:09:49;24.50;80.80
33645;DHT22;19986;48.190;16.366;2023-06-04T08:12:16;24.70;80.70
33645;DHT22;19986;48.190;16.366;2023-06-04T08:14:42;24.80;80.20
33645;DHT22;19986;48.190;16.366;2023-06-04T08:17:08;24.80;80.30
33645;DHT22;19986;48.190;16.366;2023-06-04T08:19:34;24.80;80.10
33645;DHT22;19986;48.190;16.366;2023-06-04T08:22:01;24.70;80.60
33645;DHT22;19986;48.190;16.366;2023-06-04T08:24:26;24.70;80.20
33645;DHT22;19986;48.190;16.366;2023-06-04T08:26:52;24.30;80.60
33645;DHT22;19986;48.190;16.366;2023-06-04T08:29:34;24.20;81.50
33645;DHT22;19986;48.190;16.366;2023-06-04T08:32:01;24.00;82.10
33645;DHT22;19986;48.190;16.366;2023-06-04T08:34:29;24.00;82.20
33645;DHT22;19986;48.190;16.366;2023-06-04T08:36:55;24.00;82.10
33645;DHT22;19986;48.190;16.366;2023-06-04T08:39:21;23.90;82.10
33645;DHT22;19986;48.190;16.366;2023-06-04T08:41:53;23.80;82.60
33645;DHT22;19986;48.190;16.366;2023-06-04T08:44:20;23.70;83.00
33645;DHT22;19986;48.190;16.366;2023-06-04T08:46:51;23.50;83.70
33645;DHT22;19986;48.190;16.366;2023-06-04T08:49:18;23.30;84.00
33645;DHT22;19986;48.190;16.366;2023-06-04T08:51:47;23.30;84.10
33645;DHT22;19986;48.190;16.366;2023-06-04T08:54:15;23.40;83.80
33645;DHT22;19986;48.190;16.366;2023-06-04T08:56:43;23.30;84.60
33645;DHT22;19986;48.190;16.366;2023-06-04T08:59:12;23.30;84.80
33645;DHT22;19986;48.190;16.366;2023-06-04T09:15:20;23.40;84.30
33645;DHT22;19986;48.190;16.366;2023-06-04T09:17:47;26.70;79.00
33645;DHT22;19986;48.190;16.366;2023-06-04T09:20:23;26.60;77.90
33645;DHT22;19986;48.190;16.366;2023-06-04T09:22:49;26.30;78.40
33645;DHT22;19986;48.190;16.366;2023-06-04T09:25:21;26.30;78.70
33645;DHT22;19986;48.190;16.366;2023-06-04T09:27:47;26.20;78.40
33645;DHT22;19986;48.190;16.366;2023-06-04T09:30:13;25.90;78.40
33645;DHT22;19986;48.190;16.366;2023-06-04T09:32:39;25.50;79.00
33645;DHT22;19986;48.190;16.366;2023-06-04T09:35:18;25.20;80.10
33645;DHT22;19986;48.190;16.366;2023-06-04T09:37:55;24.90;80.90
33645;DHT22;19986;48.190;16.366;2023-06-04T09:40:22;24.90;81.40
33645;DHT22;19986;48.190;16.366;2023-06-04T09:42:50;24.90;81.40
33645;DHT22;19986;48.190;16.366;2023-06-04T09:45:31;25.00;81.70
33645;DHT22;19986;48.190;16.366;2023-06-04T09:47:59;25.60;81.00
33645;DHT22;19986;48.190;16.366;2023-06-04T09:50:30;26.20;79.70
33645;DHT22;19986;48.190;16.366;2023-06-04T09:52:56;26.90;78.20
33645;DHT22;19986;48.190;16.366;2023-06-04T09:55:23;27.30;77.20
33645;DHT22;19986;48.190;16.366;2023-06-04T09:57:50;28.00;76.50
33645;DHT22;19986;48.190;16.366;2023-06-04T10:00:18;28.70;75.20
33645;DHT22;19986;48.190;16.366;2023-06-04T10:02:45;29.60;73.60
33645;DHT22;19986;48.190;16.366;2023-06-04T10:05:31;30.50;72.20
33645;DHT22;19986;48.190;16.366;2023-06-04T10:08:07;31.50;69.60
33645;DHT22;19986;48.190;16.366;2023-06-04T10:10:41;32.00;69.10
33645;DHT22;19986;48.190;16.366;2023-06-04T10:13:17;32.80;67.60
33645;DHT22;19986;48.190;16.366;2023-06-04T10:15:49;32.90;66.90
33645;DHT22;19986;48.190;16.366;2023-06-04T10:18:23;32.70;66.50
33645;DHT22;19986;48.190;16.366;2023-06-04T10:20:50;32.60;66.70
33645;DHT22;19986;48.190;16.366;2023-06-04T10:23:26;33.00;65.90
33645;DHT22;19986;48.190;16.366;2023-06-04T10:25:59;33.30;65.50
33645;DHT22;19986;48.190;16.366;2023-06-04T10:28:26;33.40;64.90
33645;DHT22;19986;48.190;16.366;2023-06-04T10:31:03;33.60;65.00
33645;DHT22;19986;48.190;16.366;2023-06-04T10:33:34;34.00;64.40
33645;DHT22;19986;48.190;16.366;2023-06-04T10:36:20;33.60;63.80
33645;DHT22;19986;48.190;16.366;2023-06-04T10:39:01;32.90;65.10
33645;DHT22;19986;48.190;16.366;2023-06-04T10:41:32;32.70;65.60
33645;DHT22;19986;48.190;16.366;2023-06-04T10:44:04;33.60;64.80
33645;DHT22;19986;48.190;16.366;2023-06-04T10:46:43;33.90;64.20
33645;DHT22;19986;48.190;16.366;2023-06-04T10:49:28;34.30;63.40
33645;DHT22;19986;48.190;16.366;2023-06-04T10:52:10;33.90;63.40
33645;DHT22;19986;48.190;16.366;2023-06-04T10:54:42;32.80;64.10
33645;DHT22;19986;48.190;16.366;2023-06-04T10:57:13;31.50;65.90
33645;DHT22;19986;48.190;16.366;2023-06-04T10:59:40;30.70;67.50
33645;DHT22;19986;48.190;16.366;2023-06-04T11:02:07;30.10;68.60
33645;DHT22;19986;48.190;16.366;2023-06-04T11:04:35;29.60;69.70
33645;DHT22;19986;48.190;16.366;2023-06-04T11:07:07;29.00;70.50
33645;DHT22;19986;48.190;16.366;2023-06-04T11:09:38;28.40;71.70
33645;DHT22;19986;48.190;16.366;2023-06-04T11:12:12;27.80;73.00
33645;DHT22;19986;48.190;16.366;2023-06-04T11:14:40;27.80;74.00
33645;DHT22;19986;48.190;16.366;2023-06-04T11:17:11;28.30;73.00
33645;DHT22;19986;48.190;16.366;2023-06-04T11:19:38;28.70;73.00
33645;DHT22;19986;48.190;16.366;2023-06-04T11:22:11;29.60;71.60
33645;DHT22;19986;48.190;16.366;2023-06-04T11:24:42;30.30;70.00
33645;DHT22;19986;48.190;16.366;2023-06-04T11:27:16;30.60;69.10
33645;DHT22;19986;48.190;16.366;2023-06-04T11:29:48;30.40;69.20
33645;DHT22;19986;48.190;16.366;2023-06-04T11:32:21;30.00;69.80
33645;DHT22;19986;48.190;16.366;2023-06-04T11:34:48;29.50;70.60
33645;DHT22;19986;48.190;16.366;2023-06-04T11:37:14;29.20;71.50
33645;DHT22;19986;48.190;16.366;2023-06-04T11:39:41;29.10;71.60
33645;DHT22;19986;48.190;16.366;2023-06-04T11:42:12;28.90;72.00
33645;DHT22;19986;48.190;16.366;2023-06-04T11:45:03;28.80;72.50
33645;DHT22;19986;48.190;16.366;2023-06-04T11:47:46;28.40;73.50
33645;DHT22;19986;48.190;16.366;2023-06-04T11:50:13;28.10;73.60
33645;DHT22;19986;48.190;16.366;2023-06-04T11:52:40;28.30;73.60
33645;DHT22;19986;48.190;16.366;2023-06-04T11:55:10;28.30;73.80
33645;DHT22;19986;48.190;16.366;2023-06-04T11:57:45;28.20;74.10
33645;DHT22;19986;48.190;16.366;2023-06-04T12:00:12;28.00;74.20
33645;DHT22;19986;48.190;16.366;2023-06-04T12:02:49;27.80;74.80
33645;DHT22;19986;48.190;16.366;2023-06-04T12:05:17;27.90;75.10
33645;DHT22;19986;48.190;16.366;2023-06-04T12:07:45;28.20;75.00
33645;DHT22;19986;48.190;16.366;2023-06-04T12:10:11;28.70;73.80
33645;DHT22;19986;48.190;16.366;2023-06-04T12:12:38;28.80;73.30
33645;DHT22;19986;48.190;16.366;2023-06-04T12:15:07;28.80;73.40
33645;DHT22;19986;48.190;16.366;2023-06-04T12:17:35;28.80;73.30
33645;DHT22;19986;48.190;16.366;2023-06-04T12:20:01;28.70;73.20
33645;DHT22;19986;48.190;16.366;2023-06-04T12:22:28;28.80;73.40
33645;DHT22;19986;48.190;16.366;2023-06-04T12:25:01;28.90;73.20
33645;DHT22;19986;48.190;16.366;2023-06-04T12:27:29;28.70;73.60
33645;DHT22;19986;48.190;16.366;2023-06-04T12:30:15;28.70;73.90
33645;DHT22;19986;48.190;16.366;2023-06-04T12:32:41;28.60;74.20
33645;DHT22;19986;48.190;16.366;2023-06-04T12:35:12;28.40;74.20
33645;DHT22;19986;48.190;16.366;2023-06-04T12:37:50;28.30;74.80
33645;DHT22;19986;48.190;16.366;2023-06-04T12:40:19;28.10;75.30
33645;DHT22;19986;48.190;16.366;2023-06-04T12:42:45;27.90;75.80
33645;DHT22;19986;48.190;16.366;2023-06-04T12:45:15;27.90;76.10
33645;DHT22;19986;48.190;16.366;2023-06-04T12:48:08;28.20;76.00
33645;DHT22;19986;48.190;16.366;2023-06-04T12:50:34;27.90;76.20
33645;DHT22;19986;48.190;16.366;2023-06-04T12:53:01;27.70;76.60
33645;DHT22;19986;48.190;16.366;2023-06-04T12:55:30;27.60;76.80
33645;DHT22;19986;48.190;16.366;2023-06-04T12:57:56;27.40;77.00
33645;DHT22;19986;48.190;16.366;2023-06-04T13:00:24;27.30;77.40
33645;DHT22;19986;48.190;16.366;2023-06-04T13:02:51;27.30;77.90
33645;DHT22;19986;48.190;16.366;2023-06-04T13:05:31;27.20;77.90
33645;DHT22;19986;48.190;16.366;2023-06-04T13:08:14;27.20;78.30
33645;DHT22;19986;48.190;16.366;2023-06-04T13:10:56;27.10;78.90
33645;DHT22;19986;48.190;16.366;2023-06-04T13:13:38;27.10;79.20
33645;DHT22;19986;48.190;16.366;2023-06-04T13:16:05;27.10;79.20
33645;DHT22;19986;48.190;16.366;2023-06-04T13:18:32;27.20;79.10
33645;DHT22;19986;48.190;16.366;2023-06-04T13:21:05;27.20;79.10
33645;DHT22;19986;48.190;16.366;2023-06-04T13:23:31;27.10;79.60
33645;DHT22;19986;48.190;16.366;2023-06-04T13:25:59;27.00;80.40
33645;DHT22;19986;48.190;16.366;2023-06-04T13:28:27;27.10;79.90
33645;DHT22;19986;48.190;16.366;2023-06-04T13:30:54;26.90;80.10
33645;DHT22;19986;48.190;16.366;2023-06-04T13:33:21;27.00;80.20
33645;DHT22;19986;48.190;16.366;2023-06-04T13:35:47;27.00;80.10
33645;DHT22;19986;48.190;16.366;2023-06-04T13:38:13;27.00;80.30
33645;DHT22;19986;48.190;16.366;2023-06-04T13:40:40;26.80;80.30
33645;DHT22;19986;48.190;16.366;2023-06-04T13:43:06;26.80;80.60
33645;DHT22;19986;48.190;16.366;2023-06-04T13:45:34;26.80;81.60
33645;DHT22;19986;48.190;16.366;2023-06-04T13:48:01;26.80;81.00
33645;DHT22;19986;48.190;16.366;2023-06-04T13:50:32;26.80;81.10
33645;DHT22;19986;48.190;16.366;2023-06-04T13:53:00;26.90;81.20
33645;DHT22;19986;48.190;16.366;2023-06-04T13:55:27;27.00;81.10
33645;DHT22;19986;48.190;16.366;2023-06-04T13:57:53;27.20;80.80
33645;DHT22;19986;48.190;16.366;2023-06-04T14:00:19;27.30;80.80
33645;DHT22;19986;48.190;16.366;2023-06-04T14:02:47;27.20;80.70
33645;DHT22;19986;48.190;16.366;2023-06-04T14:05:13;27.00;81.00
33645;DHT22;19986;48.190;16.366;2023-06-04T14:07:41;26.90;81.50
33645;DHT22;19986;48.190;16.366;2023-06-04T14:10:09;27.00;81.40
33645;DHT22;19986;48.190;16.366;2023-06-04T14:12:37;26.90;81.40
33645;DHT22;19986;48.190;16.366;2023-06-04T14:15:04;26.90;81.40
33645;DHT22;19986;48.190;16.366;2023-06-04T14:17:31;26.90;81.40
33645;DHT22;19986;48.190;16.366;2023-06-04T14:19:57;26.60;80.70
33645;DHT22;19986;48.190;16.366;2023-06-04T14:22:23;26.20;81.00
33645;DHT22;19986;48.190;16.366;2023-06-04T14:24:51;25.70;81.00
33645;DHT22;19986;48.190;16.366;2023-06-04T14:27:17;25.60;80.00
33645;DHT22;19986;48.190;16.366;2023-06-04T14:29:43;25.40;79.90
33645;DHT22;19986;48.190;16.366;2023-06-04T14:32:10;25.20;80.70
33645;DHT22;19986;48.190;16.366;2023-06-04T14:34:36;25.20;81.50
33645;DHT22;19986;48.190;16.366;2023-06-04T14:37:03;25.30;82.10
33645;DHT22;19986;48.190;16.366;2023-06-04T14:39:29;25.20;82.40
33645;DHT22;19986;48.190;16.366;2023-06-04T14:41:55;25.10;82.60
33645;DHT22;19986;48.190;16.366;2023-06-04T14:44:21;24.90;83.00
33645;DHT22;19986;48.190;16.366;2023-06-04T14:46:49;24.90;82.00
33645;DHT22;19986;48.190;16.366;2023-06-04T14:49:51;24.80;81.60
33645;DHT22;19986;48.190;16.366;2023-06-04T14:52:17;25.10;80.80
33645;DHT22;19986;48.190;16.366;2023-06-04T14:54:43;25.40;80.70
33645;DHT22;19986;48.190;16.366;2023-06-04T14:57:08;25.60;80.90
33645;DHT22;19986;48.190;16.366;2023-06-04T14:59:36;25.80;81.10
33645;DHT22;19986;48.190;16.366;2023-06-04T15:02:10;26.10;81.30
33645;DHT22;19986;48.190;16.366;2023-06-04T15:04:52;26.20;81.40
33645;DHT22;19986;48.190;16.366;2023-06-04T15:07:24;26.10;81.50
33645;DHT22;19986;48.190;16.366;2023-06-04T15:09:50;25.70;82.60
33645;DHT22;19986;48.190;16.366;2023-06-04T15:12:18;25.50;83.60
33645;DHT22;19986;48.190;16.366;2023-06-04T15:14:45;25.50;84.40
33645;DHT22;19986;48.190;16.366;2023-06-04T15:17:11;25.30;85.50
33645;DHT22;19986;48.190;16.366;2023-06-04T15:19:37;25.00;86.60
33645;DHT22;19986;48.190;16.366;2023-06-04T15:22:03;24.70;87.80
33645;DHT22;19986;48.190;16.366;2023-06-04T15:24:29;24.50;88.70
33645;DHT22;19986;48.190;16.366;2023-06-04T15:26:56;24.40;89.60
33645;DHT22;19986;48.190;16.366;2023-06-04T15:29:24;24.30;89.70
33645;DHT22;19986;48.190;16.366;2023-06-04T15:31:50;24.20;90.10
33645;DHT22;19986;48.190;16.366;2023-06-04T15:34:16;24.00;90.20
33645;DHT22;19986;48.190;16.366;2023-06-04T15:36:42;23.90;90.40
33645;DHT22;19986;48.190;16.366;2023-06-04T15:39:08;23.60;90.90
33645;DHT22;19986;48.190;16.366;2023-06-04T15:41:34;23.50;91.00
33645;DHT22;19986;48.190;16.366;2023-06-04T15:44:00;23.50;91.10